createdAt,value
2023-04-27T00:01:36.928Z,2.50
2023-04-27T00:04:07.454Z,2.43
2023-04-27T00:06:34.400Z,2.60
2023-04-27T00:09:01.041Z,2.40
2023-04-27T00:11:27.659Z,2.50
2023-04-27T00:13:54.251Z,2.50
2023-04-27T00:16:20.881Z,2.73
2023-04-27T00:18:47.662Z,2.20
2023-04-27T00:21:14.534Z,2.23
2023-04-27T00:23:41.138Z,2.87
2023-04-27T00:26:07.751Z,2.93
2023-04-27T00:28:34.308Z,2.40
2023-04-27T00:31:03.364Z,2.83
2023-04-27T00:33:30.063Z,2.40
2023-04-27T00:36:02.490Z,2.40
2023-04-27T00:38:29.689Z,2.83
2023-04-27T00:41:06.032Z,2.90
2023-04-27T00:43:33.377Z,2.80
2023-04-27T00:46:00.537Z,2.40
2023-04-27T00:48:27.487Z,2.23
2023-04-27T00:50:54.571Z,2.60
2023-04-27T00:53:21.556Z,2.50
2023-04-27T00:55:49.422Z,2.67
2023-04-27T00:58:16.260Z,2.90
2023-04-27T01:00:43.101Z,3.03
2023-04-27T01:03:10.039Z,2.87
2023-04-27T01:05:37.984Z,2.73
2023-04-27T01:08:05.197Z,2.93
2023-04-27T01:10:31.803Z,2.67
2023-04-27T01:12:58.531Z,3.00
2023-04-27T01:15:25.237Z,3.13
2023-04-27T01:17:58.540Z,3.10
2023-04-27T01:20:25.977Z,3.10
2023-04-27T01:22:53.541Z,2.73
2023-04-27T01:25:20.397Z,2.70
2023-04-27T01:27:47.020Z,2.57
2023-04-27T01:30:13.831Z,2.70
2023-04-27T01:32:40.519Z,2.90
2023-04-27T01:35:07.676Z,3.53
2023-04-27T01:37:35.083Z,2.80
2023-04-27T01:40:01.843Z,3.10
2023-04-27T01:42:29.062Z,2.73
2023-04-27T01:44:55.732Z,2.67
2023-04-27T01:47:22.317Z,3.00
2023-04-27T01:49:48.926Z,2.33
2023-04-27T01:52:15.647Z,2.77
2023-04-27T01:54:42.280Z,2.70
2023-04-27T01:57:09.739Z,3.13
2023-04-27T01:59:36.359Z,3.10
2023-04-27T02:02:04.100Z,2.80
2023-04-27T02:04:30.922Z,3.00
2023-04-27T02:06:58.070Z,2.90
2023-04-27T02:09:24.794Z,2.60
2023-04-27T02:11:51.390Z,2.70
2023-04-27T02:14:18.010Z,2.60
2023-04-27T02:16:47.015Z,2.80
2023-04-27T02:19:13.754Z,2.83
2023-04-27T02:21:41.022Z,2.40
2023-04-27T02:24:07.666Z,2.67
2023-04-27T02:26:34.332Z,2.83
2023-04-27T02:29:03.832Z,2.77
2023-04-27T02:31:31.155Z,2.67
2023-04-27T02:33:57.835Z,2.57
2023-04-27T02:36:25.300Z,2.40
2023-04-27T02:38:55.555Z,2.20
2023-04-27T02:41:22.228Z,2.60
2023-04-27T02:43:51.367Z,2.30
2023-04-27T02:46:18.051Z,2.93
2023-04-27T02:48:44.660Z,2.20
2023-04-27T02:51:11.338Z,2.37
2023-04-27T02:53:37.961Z,2.60
2023-04-27T02:56:04.867Z,2.60
2023-04-27T02:58:31.802Z,4.97
2023-04-27T03:00:58.453Z,2.63
2023-04-27T03:03:25.297Z,2.53
2023-04-27T03:05:52.016Z,2.40
2023-04-27T03:08:18.617Z,2.70
2023-04-27T03:10:45.242Z,2.60
2023-04-27T03:13:11.942Z,2.73
2023-04-27T03:15:38.590Z,2.50
2023-04-27T03:18:06.081Z,2.43
2023-04-27T03:20:33.868Z,2.60
2023-04-27T03:23:00.486Z,2.53
2023-04-27T03:25:27.648Z,2.20
2023-04-27T03:27:54.286Z,2.40
2023-04-27T03:30:22.869Z,2.80
2023-04-27T03:32:49.569Z,2.13
2023-04-27T03:35:16.364Z,2.37
2023-04-27T03:37:46.105Z,2.60
2023-04-27T03:40:14.483Z,2.10
2023-04-27T03:42:41.293Z,2.27
2023-04-27T03:45:08.899Z,2.23
2023-04-27T03:47:35.576Z,2.60
2023-04-27T03:50:02.239Z,2.73
2023-04-27T03:52:28.843Z,2.70
2023-04-27T03:54:55.431Z,3.00
2023-04-27T03:57:22.095Z,2.70
2023-04-27T03:59:49.673Z,2.77
2023-04-27T04:02:17.237Z,3.23
2023-04-27T04:04:44.090Z,3.47
2023-04-27T04:07:13.084Z,3.47
2023-04-27T04:09:39.892Z,3.77
2023-04-27T04:12:06.678Z,3.37
2023-04-27T04:14:33.428Z,3.33
2023-04-27T04:17:00.595Z,3.40
2023-04-27T04:19:27.232Z,4.00
2023-04-27T04:21:54.595Z,3.50
2023-04-27T04:24:21.609Z,3.30
2023-04-27T04:26:48.504Z,3.47
2023-04-27T04:29:15.644Z,3.53
2023-04-27T04:31:42.656Z,3.60
2023-04-27T04:34:10.022Z,3.57
2023-04-27T04:36:36.686Z,3.80
2023-04-27T04:39:04.089Z,3.20
2023-04-27T04:41:32.274Z,3.70
2023-04-27T04:43:59.586Z,3.60
2023-04-27T04:46:26.407Z,3.57
2023-04-27T04:48:54.821Z,3.40
2023-04-27T04:51:21.719Z,4.23
2023-04-27T04:53:48.360Z,3.83
2023-04-27T04:56:16.871Z,3.63
2023-04-27T04:58:43.522Z,3.80
2023-04-27T05:01:10.407Z,4.10
2023-04-27T05:03:37.265Z,3.93
2023-04-27T05:06:04.105Z,4.00
2023-04-27T05:08:30.754Z,3.57
2023-04-27T05:10:57.426Z,4.07
2023-04-27T05:13:27.893Z,4.00
2023-04-27T05:15:54.528Z,3.80
2023-04-27T05:18:21.363Z,3.70
2023-04-27T05:20:47.955Z,3.80
2023-04-27T05:23:14.523Z,3.30
2023-04-27T05:25:44.107Z,3.50
2023-04-27T05:28:11.011Z,3.50
2023-04-27T05:30:37.753Z,3.50
2023-04-27T05:33:05.226Z,4.00
2023-04-27T05:35:35.391Z,3.43
2023-04-27T05:38:04.614Z,3.30
2023-04-27T05:40:31.197Z,4.10
2023-04-27T05:42:57.836Z,3.83
2023-04-27T05:45:27.577Z,3.93
2023-04-27T05:47:54.262Z,3.70
2023-04-27T05:50:21.025Z,4.13
2023-04-27T05:52:47.601Z,4.17
2023-04-27T05:55:14.192Z,4.43
2023-04-27T05:57:41.293Z,3.87
2023-04-27T06:00:10.463Z,3.83
2023-04-27T06:02:40.292Z,3.80
2023-04-27T06:05:07.248Z,3.83
2023-04-27T06:07:33.884Z,4.50
2023-04-27T06:10:00.524Z,4.10
2023-04-27T06:12:27.234Z,4.13
2023-04-27T06:14:53.814Z,3.53
2023-04-27T06:17:21.786Z,3.70
2023-04-27T06:19:48.432Z,3.80
2023-04-27T06:22:15.032Z,4.40
2023-04-27T06:24:42.374Z,3.80
2023-04-27T06:27:08.958Z,3.23
2023-04-27T06:29:35.560Z,3.37
2023-04-27T06:32:05.716Z,3.57
2023-04-27T06:34:33.868Z,3.60
2023-04-27T06:37:00.537Z,3.50
2023-04-27T06:39:27.144Z,3.00
2023-04-27T06:41:53.726Z,3.57
2023-04-27T06:44:20.363Z,3.70
2023-04-27T06:46:46.970Z,3.07
2023-04-27T06:49:13.746Z,3.10
2023-04-27T06:51:41.076Z,3.40
2023-04-27T06:54:08.285Z,3.17
2023-04-27T06:56:34.886Z,3.37
2023-04-27T06:59:01.702Z,3.57
2023-04-27T07:01:28.346Z,3.03
2023-04-27T07:03:55.098Z,3.77
2023-04-27T07:06:22.395Z,3.00
2023-04-27T07:08:48.964Z,2.63
2023-04-27T07:11:16.337Z,2.90
2023-04-27T07:13:43.290Z,3.33
2023-04-27T07:16:10.048Z,2.60
2023-04-27T07:18:36.705Z,3.10
2023-04-27T07:21:03.535Z,2.80
2023-04-27T07:23:30.166Z,3.33
2023-04-27T07:25:57.756Z,3.10
2023-04-27T07:28:24.433Z,3.30
2023-04-27T07:30:51.820Z,3.57
2023-04-27T07:33:20.319Z,3.30
2023-04-27T07:35:46.987Z,3.40
2023-04-27T07:38:13.597Z,3.40
2023-04-27T07:40:40.696Z,3.30
2023-04-27T07:43:09.289Z,2.83
2023-04-27T07:45:37.280Z,2.30
2023-04-27T07:48:04.409Z,2.70
2023-04-27T07:50:31.641Z,2.20
2023-04-27T07:52:59.095Z,2.70
2023-04-27T07:55:26.069Z,2.60
2023-04-27T07:57:53.836Z,2.47
2023-04-27T08:00:21.137Z,2.53
2023-04-27T08:02:48.022Z,2.60
2023-04-27T08:05:15.221Z,2.33
2023-04-27T08:07:44.934Z,2.30
2023-04-27T08:10:12.256Z,1.50
2023-04-27T08:12:39.508Z,2.17
2023-04-27T08:15:07.497Z,1.67
2023-04-27T08:17:35.010Z,2.17
2023-04-27T08:20:01.690Z,2.20
2023-04-27T08:22:28.286Z,1.80
2023-04-27T08:24:54.905Z,2.43
2023-04-27T08:27:21.589Z,2.50
2023-04-27T08:29:48.917Z,2.47
2023-04-27T08:32:15.912Z,2.60
2023-04-27T08:34:44.697Z,2.30
2023-04-27T08:37:11.606Z,3.00
2023-04-27T08:39:38.410Z,1.77
2023-04-27T08:42:12.215Z,2.50
2023-04-27T08:44:40.139Z,2.43
2023-04-27T08:47:07.654Z,2.43
2023-04-27T08:49:34.676Z,2.87
2023-04-27T08:52:02.114Z,1.90
2023-04-27T08:54:28.750Z,2.87
2023-04-27T08:56:55.417Z,1.70
2023-04-27T08:59:22.104Z,2.00
2023-04-27T09:01:49.782Z,1.43
2023-04-27T09:04:17.803Z,2.00
2023-04-27T09:06:44.812Z,2.10
2023-04-27T09:09:23.327Z,2.17
2023-04-27T09:11:49.913Z,2.33
2023-04-27T09:14:19.965Z,2.00
2023-04-27T09:16:57.648Z,2.17
2023-04-27T09:19:29.651Z,1.80
2023-04-27T09:22:07.444Z,2.40
2023-04-27T09:24:34.124Z,2.00
2023-04-27T09:27:01.803Z,2.47
2023-04-27T09:29:38.524Z,2.17
2023-04-27T09:32:17.247Z,2.20
2023-04-27T09:34:44.687Z,2.17
2023-04-27T09:37:12.070Z,2.13
2023-04-27T09:39:38.943Z,2.40
2023-04-27T09:42:05.828Z,2.07
2023-04-27T09:44:33.192Z,2.07
2023-04-27T09:47:00.851Z,2.10
2023-04-27T09:49:31.235Z,2.03
2023-04-27T09:51:58.778Z,1.90
2023-04-27T09:54:29.972Z,2.07
2023-04-27T09:57:23.614Z,2.40
2023-04-27T10:00:11.159Z,2.50
2023-04-27T10:02:53.781Z,2.50
2023-04-27T10:06:17.570Z,8.57
2023-04-27T10:08:45.407Z,1.70
2023-04-27T10:11:17.452Z,2.10
2023-04-27T10:13:55.300Z,2.03
2023-04-27T10:16:22.520Z,2.30
2023-04-27T10:18:55.393Z,3.07
2023-04-27T10:21:22.614Z,2.37
2023-04-27T10:23:52.489Z,2.10
2023-04-27T10:26:27.421Z,2.13
2023-04-27T10:29:08.348Z,2.20
2023-04-27T10:31:35.708Z,2.17
2023-04-27T10:34:09.855Z,2.13
2023-04-27T10:36:40.806Z,2.83
2023-04-27T10:39:36.222Z,2.10
2023-04-27T10:42:11.743Z,2.00
2023-04-27T10:44:39.162Z,2.10
2023-04-27T10:47:16.369Z,2.07
2023-04-27T10:49:43.492Z,2.23
2023-04-27T10:52:10.226Z,1.90
2023-04-27T10:54:37.717Z,2.10
2023-04-27T10:57:10.819Z,2.33
2023-04-27T10:59:52.777Z,1.80
2023-04-27T11:02:28.186Z,2.57
2023-04-27T11:04:56.369Z,2.23
2023-04-27T11:07:28.297Z,2.07
2023-04-27T11:09:55.601Z,2.47
2023-04-27T11:12:22.481Z,2.23
2023-04-27T11:14:49.138Z,2.20
2023-04-27T11:17:15.735Z,2.10
2023-04-27T11:19:48.862Z,2.23
2023-04-27T11:22:19.090Z,2.10
2023-04-27T11:24:50.568Z,2.00
2023-04-27T11:27:19.911Z,2.43
2023-04-27T11:29:46.772Z,2.43
2023-04-27T11:32:23.481Z,2.37
2023-04-27T11:34:53.726Z,2.80
2023-04-27T11:37:25.500Z,2.70
2023-04-27T11:39:54.512Z,2.50
2023-04-27T11:42:25.391Z,2.50
2023-04-27T11:45:01.070Z,2.30
2023-04-27T11:47:29.493Z,2.03
2023-04-27T11:49:57.769Z,1.80
2023-04-27T11:52:35.753Z,2.27
2023-04-27T11:55:06.040Z,2.13
2023-04-27T11:57:34.202Z,2.50
2023-04-27T12:00:09.037Z,1.90
2023-04-27T12:02:41.116Z,2.80
2023-04-27T12:05:09.539Z,32.90
2023-04-27T12:07:36.286Z,2.73
2023-04-27T12:10:02.980Z,2.70
2023-04-27T12:12:29.700Z,2.37
2023-04-27T12:14:57.873Z,2.00
2023-04-27T12:17:24.476Z,3.20
2023-04-27T12:19:51.232Z,2.70
2023-04-27T12:22:17.958Z,2.00
2023-04-27T12:24:44.594Z,2.70
2023-04-27T12:27:12.086Z,2.57
2023-04-27T12:29:39.099Z,2.73
2023-04-27T12:32:06.032Z,2.70
2023-04-27T12:34:32.897Z,3.00
2023-04-27T12:36:59.510Z,2.80
2023-04-27T12:39:26.694Z,1.93
2023-04-27T12:41:53.948Z,2.80
2023-04-27T12:44:21.285Z,2.17
2023-04-27T12:46:48.766Z,2.10
2023-04-27T12:49:15.752Z,2.00
2023-04-27T12:51:42.907Z,2.30
2023-04-27T12:54:11.220Z,2.53
2023-04-27T12:56:38.082Z,2.40
2023-04-27T12:59:06.123Z,1.97
2023-04-27T13:01:33.239Z,2.63
2023-04-27T13:04:02.451Z,2.50
2023-04-27T13:06:31.169Z,2.40
2023-04-27T13:08:58.857Z,3.03
2023-04-27T13:11:26.512Z,2.80
2023-04-27T13:13:54.771Z,2.80
2023-04-27T13:16:22.699Z,3.10
2023-04-27T13:18:52.077Z,2.57
2023-04-27T13:21:19.023Z,3.10
2023-04-27T13:23:45.893Z,2.97
2023-04-27T13:26:12.742Z,2.77
2023-04-27T13:28:40.704Z,2.73
2023-04-27T13:31:07.543Z,2.70
2023-04-27T13:33:39.962Z,2.60
2023-04-27T13:36:07.126Z,2.93
2023-04-27T13:38:33.785Z,2.80
2023-04-27T13:41:00.642Z,3.00
2023-04-27T13:43:27.358Z,3.63
2023-04-27T13:45:55.658Z,3.30
2023-04-27T13:48:22.808Z,3.70
2023-04-27T13:50:49.527Z,3.17
2023-04-27T13:53:16.727Z,3.10
2023-04-27T13:55:44.116Z,3.90
2023-04-27T13:58:11.195Z,3.67
2023-04-27T14:00:38.239Z,3.40
2023-04-27T14:03:05.259Z,3.13
2023-04-27T14:05:32.123Z,3.30
2023-04-27T14:07:58.749Z,3.70
2023-04-27T14:10:26.484Z,3.67
2023-04-27T14:12:53.153Z,3.70
2023-04-27T14:15:19.881Z,3.60
2023-04-27T14:17:46.552Z,3.20
2023-04-27T14:20:13.244Z,3.43
2023-04-27T14:22:39.898Z,3.27
2023-04-27T14:25:07.108Z,3.47
2023-04-27T14:27:33.720Z,3.30
2023-04-27T14:30:00.508Z,3.00
2023-04-27T14:32:27.550Z,3.07
2023-04-27T14:34:54.217Z,3.63
2023-04-27T14:37:20.883Z,3.27
2023-04-27T14:39:47.492Z,2.90
2023-04-27T14:42:14.075Z,3.13
2023-04-27T14:44:40.926Z,3.33
2023-04-27T14:47:07.618Z,2.97
2023-04-27T14:49:34.364Z,3.77
2023-04-27T14:52:03.994Z,4.17
2023-04-27T14:54:30.716Z,3.10
2023-04-27T14:56:58.698Z,3.27
2023-04-27T14:59:25.778Z,2.80
2023-04-27T15:01:52.548Z,2.73
2023-04-27T15:04:19.701Z,3.07
2023-04-27T15:06:47.012Z,2.83
2023-04-27T15:09:13.965Z,3.47
2023-04-27T15:11:41.423Z,2.43
2023-04-27T15:14:08.644Z,2.60
2023-04-27T15:16:35.488Z,2.80
2023-04-27T15:19:02.273Z,3.40
2023-04-27T15:21:30.314Z,3.20
2023-04-27T15:23:57.121Z,3.47
2023-04-27T15:26:25.374Z,3.00
2023-04-27T15:28:52.001Z,3.33
2023-04-27T15:31:18.807Z,4.13
2023-04-27T15:33:45.628Z,3.80
2023-04-27T15:36:12.663Z,3.33
2023-04-27T15:38:39.623Z,3.67
2023-04-27T15:41:06.527Z,3.50
2023-04-27T15:43:33.118Z,4.03
2023-04-27T15:46:02.803Z,3.10
2023-04-27T15:48:29.520Z,3.83
2023-04-27T15:50:56.179Z,3.97
2023-04-27T15:53:23.141Z,4.70
2023-04-27T15:55:49.771Z,5.13
2023-04-27T15:58:16.416Z,4.13
2023-04-27T16:00:43.291Z,3.83
2023-04-27T16:03:11.389Z,3.93
2023-04-27T16:05:38.434Z,4.00
2023-04-27T16:08:05.213Z,4.67
2023-04-27T16:10:32.153Z,4.00
2023-04-27T16:12:58.846Z,4.00
2023-04-27T16:15:25.701Z,4.10
2023-04-27T16:17:52.510Z,4.00
2023-04-27T16:20:19.166Z,4.70
2023-04-27T16:22:45.985Z,4.37
2023-04-27T16:25:12.810Z,4.07
2023-04-27T16:27:39.660Z,4.97
2023-04-27T16:30:07.368Z,3.83
2023-04-27T16:32:35.568Z,4.17
2023-04-27T16:35:04.830Z,3.83
2023-04-27T16:37:31.538Z,4.30
2023-04-27T16:40:05.797Z,3.33
2023-04-27T16:42:32.668Z,4.23
2023-04-27T16:45:02.027Z,5.03
2023-04-27T16:47:31.246Z,5.53
2023-04-27T16:49:58.189Z,4.63
2023-04-27T16:52:25.293Z,4.57
2023-04-27T16:54:52.023Z,4.50
2023-04-27T16:57:19.934Z,4.63
2023-04-27T16:59:46.714Z,4.87
2023-04-27T17:02:23.753Z,5.03
2023-04-27T17:04:51.130Z,4.10
2023-04-27T17:07:17.865Z,4.20
2023-04-27T17:09:44.493Z,4.80
2023-04-27T17:12:13.161Z,4.90
2023-04-27T17:14:39.833Z,3.23
2023-04-27T17:17:06.698Z,4.20
2023-04-27T17:19:33.322Z,4.43
2023-04-27T17:22:00.066Z,4.80
2023-04-27T17:24:26.883Z,4.73
2023-04-27T17:26:53.844Z,4.83
2023-04-27T17:29:21.570Z,4.80
2023-04-27T17:31:49.132Z,4.93
2023-04-27T17:34:16.187Z,5.63
2023-04-27T17:36:42.885Z,5.10
2023-04-27T17:39:09.560Z,4.80
2023-04-27T17:41:37.232Z,5.00
2023-04-27T17:44:04.577Z,5.23
2023-04-27T17:46:31.471Z,5.37
2023-04-27T17:48:58.139Z,5.30
2023-04-27T17:51:24.819Z,4.83
2023-04-27T17:53:51.469Z,4.50
2023-04-27T17:56:18.089Z,5.20
2023-04-27T17:58:44.690Z,4.60
2023-04-27T18:01:13.241Z,4.80
2023-04-27T18:03:41.806Z,3.57
2023-04-27T18:06:08.916Z,2.93
2023-04-27T18:08:35.618Z,5.30
2023-04-27T18:11:02.254Z,4.17
2023-04-27T18:13:29.146Z,3.60
2023-04-27T18:15:55.818Z,4.20
2023-04-27T18:18:25.103Z,4.50
2023-04-27T18:20:52.149Z,4.60
2023-04-27T18:23:29.876Z,5.43
2023-04-27T18:26:00.105Z,4.40
2023-04-27T18:28:26.735Z,4.57
2023-04-27T18:30:53.325Z,4.80
2023-04-27T18:33:20.996Z,4.10
2023-04-27T18:35:47.780Z,4.67
2023-04-27T18:38:14.384Z,4.90
2023-04-27T18:40:41.184Z,4.53
2023-04-27T18:43:08.312Z,4.60
2023-04-27T18:45:35.016Z,5.27
2023-04-27T18:48:01.785Z,5.23
2023-04-27T18:50:28.512Z,4.23
2023-04-27T18:52:55.119Z,4.87
2023-04-27T18:55:23.930Z,4.30
2023-04-27T18:57:51.015Z,4.57
2023-04-27T19:00:17.677Z,4.30
2023-04-27T19:02:44.309Z,4.47
2023-04-27T19:05:13.582Z,4.43
2023-04-27T19:07:40.790Z,5.10
2023-04-27T19:10:08.317Z,4.83
2023-04-27T19:12:35.781Z,4.70
2023-04-27T19:15:02.617Z,4.67
2023-04-27T19:17:29.311Z,5.33
2023-04-27T19:19:56.058Z,5.40
2023-04-27T19:22:22.705Z,5.10
2023-04-27T19:24:49.303Z,5.00
2023-04-27T19:27:16.104Z,5.83
2023-04-27T19:29:51.227Z,5.83
2023-04-27T19:32:17.990Z,5.07
2023-04-27T19:34:44.605Z,5.27
2023-04-27T19:37:11.295Z,5.23
2023-04-27T19:39:38.582Z,5.07
2023-04-27T19:42:05.254Z,5.23
2023-04-27T19:44:31.861Z,4.90
2023-04-27T19:46:58.475Z,5.20
2023-04-27T19:49:25.351Z,6.00
2023-04-27T19:51:51.958Z,5.53
2023-04-27T19:54:18.676Z,5.00
2023-04-27T19:56:45.472Z,4.53
2023-04-27T19:59:12.159Z,5.10
2023-04-27T20:01:38.797Z,5.27
2023-04-27T20:04:05.565Z,5.60
2023-04-27T20:06:33.209Z,5.30
2023-04-27T20:09:00.040Z,4.90
2023-04-27T20:11:26.636Z,5.27
2023-04-27T20:13:53.214Z,5.70
2023-04-27T20:16:21.344Z,5.33
2023-04-27T20:18:49.558Z,5.30
2023-04-27T20:21:16.279Z,5.40
2023-04-27T20:23:42.873Z,5.30
2023-04-27T20:26:09.489Z,5.60
2023-04-27T20:28:36.106Z,5.47
2023-04-27T20:31:02.708Z,5.30
2023-04-27T20:33:29.320Z,6.00
2023-04-27T20:36:03.446Z,5.97
2023-04-27T20:38:36.948Z,6.40
2023-04-27T20:41:04.565Z,5.33
2023-04-27T20:43:31.427Z,5.00
2023-04-27T20:45:58.067Z,5.50
2023-04-27T20:48:28.269Z,5.37
2023-04-27T20:50:55.422Z,5.43
2023-04-27T20:53:22.068Z,4.90
2023-04-27T20:55:48.987Z,5.67
2023-04-27T20:58:15.581Z,5.40
2023-04-27T21:00:42.190Z,5.00
2023-04-27T21:03:09.040Z,5.37
2023-04-27T21:05:35.706Z,5.67
2023-04-27T21:08:02.281Z,5.83
2023-04-27T21:10:28.873Z,5.97
2023-04-27T21:12:55.602Z,5.50
2023-04-27T21:15:22.335Z,7.60
2023-04-27T21:17:49.048Z,6.87
2023-04-27T21:20:16.177Z,7.20
2023-04-27T21:22:42.788Z,7.00
2023-04-27T21:25:09.633Z,8.07
2023-04-27T21:27:36.386Z,6.57
2023-04-27T21:30:03.105Z,6.87
2023-04-27T21:32:29.738Z,8.03
2023-04-27T21:34:56.355Z,7.13
2023-04-27T21:37:22.937Z,7.93
2023-04-27T21:39:49.589Z,8.00
2023-04-27T21:42:16.424Z,8.23
2023-04-27T21:44:43.058Z,7.53
2023-04-27T21:47:09.682Z,7.70
2023-04-27T21:49:36.345Z,7.70
2023-04-27T21:52:02.994Z,7.17
2023-04-27T21:54:29.618Z,8.60
2023-04-27T21:56:56.245Z,7.83
2023-04-27T21:59:22.816Z,9.47
2023-04-27T22:01:49.485Z,7.87
2023-04-27T22:04:16.989Z,8.57
2023-04-27T22:06:44.633Z,8.50
2023-04-27T22:09:12.172Z,7.87
2023-04-27T22:11:38.837Z,8.17
2023-04-27T22:14:05.682Z,8.90
2023-04-27T22:16:32.285Z,8.17
2023-04-27T22:18:59.647Z,7.93
2023-04-27T22:21:27.348Z,8.57
2023-04-27T22:23:53.973Z,8.57
2023-04-27T22:26:20.742Z,8.83
2023-04-27T22:28:47.306Z,8.17
2023-04-27T22:31:14.078Z,8.93
2023-04-27T22:33:40.798Z,8.43
2023-04-27T22:36:07.850Z,8.67
2023-04-27T22:38:34.432Z,8.60
2023-04-27T22:41:01.034Z,8.70
2023-04-27T22:43:27.626Z,8.87
2023-04-27T22:45:54.203Z,8.63
2023-04-27T22:48:21.113Z,8.50
2023-04-27T22:50:47.693Z,8.70
2023-04-27T22:53:14.293Z,9.20
2023-04-27T22:55:40.948Z,9.07
2023-04-27T22:58:07.545Z,9.33
2023-04-27T23:00:34.263Z,8.90
2023-04-27T23:03:01.086Z,8.40
2023-04-27T23:05:28.950Z,9.23
2023-04-27T23:07:55.633Z,9.10
2023-04-27T23:10:22.545Z,8.67
2023-04-27T23:12:50.613Z,8.40
2023-04-27T23:15:17.352Z,9.50
2023-04-27T23:17:44.122Z,9.53
2023-04-27T23:20:26.668Z,10.00
2023-04-27T23:22:54.481Z,9.80
2023-04-27T23:25:21.427Z,9.53
2023-04-27T23:27:49.969Z,9.77
2023-04-27T23:30:18.398Z,9.73
2023-04-27T23:32:45.025Z,9.10
2023-04-27T23:35:11.718Z,9.57
2023-04-27T23:37:38.381Z,9.57
2023-04-27T23:40:06.239Z,9.87
2023-04-27T23:42:33.149Z,9.40
2023-04-27T23:44:59.784Z,9.00
2023-04-27T23:47:26.447Z,9.13
2023-04-27T23:49:53.093Z,9.67
2023-04-27T23:52:19.665Z,9.70
2023-04-27T23:54:46.277Z,9.53
2023-04-27T23:57:14.775Z,9.37
2023-04-27T23:59:41.385Z,8.97
